Time;durP1;ratioP1;P1;durP2;ratioP2;P2;SDS_P1;SDS_P2;PMS_P1;PMS_P2;Temp;Humidity;BMP_temperature;BMP_pressure;BME280_temperature;BME280_humidity;BME280_pressure;Samples;Min_cycle;Max_cycle;Signal;HPM_P1;HPM_P2
2021/11/06 00:00:28;;;;;;;;;21.00;19.50;;;;;8.75;68.72;102278.63;5011163;28;48403;-78
2021/11/06 00:03:08;;;;;;;;;19.50;19.50;;;;;8.49;68.50;102231.72;5011158;28;45661;-81
2021/11/06 00:05:35;;;;;;;;;17.75;17.25;;;;;9.21;68.48;102368.44;5011321;28;45626;-78
2021/11/06 00:08:02;;;;;;;;;14.00;13.00;;;;;8.95;68.70;102311.91;5028901;27;48222;-77
2021/11/06 00:10:28;;;;;;;;;19.50;17.25;;;;;9.24;68.74;102377.03;5012451;28;45720;-79
2021/11/06 00:12:54;;;;;;;;;20.00;19.75;;;;;9.12;68.98;102360.97;5012600;28;45582;-77
2021/11/06 00:15:22;;;;;;;;;19.50;19.25;;;;;8.90;68.69;102326.91;5012509;28;45574;-77
2021/11/06 00:17:47;;;;;;;;;20.25;17.25;;;;;8.58;68.97;102280.19;5011076;27;47593;-78
2021/11/06 00:20:15;;;;;;;;;19.00;16.00;;;;;8.98;69.32;102360.59;5013068;28;47068;-76
2021/11/06 00:26:03;;;;;;;;;17.25;15.50;;;;;8.76;69.23;102347.44;5017444;28;45710;-78
2021/11/06 00:28:29;;;;;;;;;19.25;15.25;;;;;8.67;69.67;102332.94;5017173;27;46829;-79
2021/11/06 00:30:57;;;;;;;;;16.00;15.00;;;;;8.84;69.47;102361.97;5015615;27;45568;-79
2021/11/06 00:33:28;;;;;;;;;15.75;15.00;;;;;8.37;69.52;102293.06;5014366;27;45849;-79
2021/11/06 00:35:54;;;;;;;;;19.50;19.25;;;;;8.38;69.81;102299.16;5018855;27;45556;-79
2021/11/06 00:38:23;;;;;;;;;20.50;18.75;;;;;8.86;69.84;102374.94;5012364;28;47397;-80
2021/11/06 00:40:49;;;;;;;;;20.00;16.50;;;;;8.02;69.97;102251.66;5012629;27;47716;-76
2021/11/06 00:43:25;;;;;;;;;15.75;13.75;;;;;8.83;70.41;102375.94;5013113;27;45569;-80
2021/11/06 00:45:51;;;;;;;;;17.25;13.75;;;;;8.06;69.87;102255.84;5028058;28;45620;-79
2021/11/06 00:48:17;;;;;;;;;21.50;19.25;;;;;8.06;70.03;102263.69;4994689;28;47033;-78
2021/11/06 00:50:44;;;;;;;;;23.00;19.75;;;;;8.30;70.03;102296.81;5011089;28;47383;-79
2021/11/06 00:53:10;;;;;;;;;14.75;12.75;;;;;8.40;70.01;102313.88;5012469;27;45567;-78
2021/11/06 00:55:38;;;;;;;;;18.00;17.00;;;;;8.03;70.34;102248.13;5010746;28;46081;-77
2021/11/06 00:58:09;;;;;;;;;20.00;17.75;;;;;8.37;70.30;102323.56;5012286;27;45660;-79
2021/11/06 01:00:40;;;;;;;;;15.75;14.25;;;;;8.51;70.31;102341.38;5027361;28;48264;-78
2021/11/06 01:03:05;;;;;;;;;19.75;18.25;;;;;8.36;70.39;102306.19;5012455;27;45985;-78
2021/11/06 01:12:04;;;;;;;;;18.25;15.25;;;;;8.20;70.84;102274.53;5006940;28;45844;-79
2021/11/06 01:14:33;;;;;;;;;18.00;16.50;;;;;8.22;70.59;102270.06;5011531;28;46145;-78
2021/11/06 01:17:05;;;;;;;;;22.75;18.75;;;;;8.41;70.47;102310.38;5011083;28;45625;-79
2021/11/06 01:19:30;;;;;;;;;19.25;16.25;;;;;8.23;70.32;102277.00;4994517;28;48076;-78
2021/11/06 01:25:20;;;;;;;;;13.25;12.25;;;;;8.51;70.62;102336.16;5011270;28;46023;-78
2021/11/06 01:27:48;;;;;;;;;14.75;13.75;;;;;8.43;70.50;102329.44;5016948;27;45638;-79
2021/11/06 01:30:24;;;;;;;;;;;;;;;;;;;;;
2021/11/06 01:32:58;;;;;;;;;15.75;15.50;;;;;8.65;70.71;102352.19;5014956;27;74574;-79
2021/11/06 01:35:25;;;;;;;;;17.00;15.00;;;;;8.04;70.52;102251.59;5012394;27;45847;-77
2021/11/06 01:41:12;;;;;;;;;16.75;14.00;;;;;8.33;70.68;102301.94;5011965;28;45978;-76
2021/11/06 01:43:42;;;;;;;;;14.00;13.25;;;;;8.13;70.63;102259.09;5012003;28;45709;-78
2021/11/06 01:46:08;;;;;;;;;13.50;12.25;;;;;8.67;70.67;102345.16;4994029;27;45888;-77
2021/11/06 01:48:37;;;;;;;;;14.00;11.50;;;;;8.70;70.66;102352.88;5012050;28;45502;-77
2021/11/06 01:51:04;;;;;;;;;18.75;17.25;;;;;8.72;70.62;102351.94;5011440;28;45920;-78
2021/11/06 01:53:30;;;;;;;;;15.25;14.50;;;;;8.68;70.56;102345.13;5012788;28;45534;-78
2021/11/06 01:55:58;;;;;;;;;18.00;14.00;;;;;8.62;70.69;102350.56;5015676;28;45575;-77
2021/11/06 01:58:28;;;;;;;;;16.25;15.00;;;;;8.24;70.73;102283.94;5014231;27;45617;-79
2021/11/06 02:00:55;;;;;;;;;16.00;15.00;;;;;8.38;70.91;102315.69;5014677;27;45718;-77
2021/11/06 02:03:20;;;;;;;;;15.00;14.25;;;;;7.98;70.85;102244.84;5013220;28;46154;-77
2021/11/06 02:05:46;;;;;;;;;20.25;16.25;;;;;8.42;70.90;102322.50;5012631;28;45499;-78
2021/11/06 02:11:38;;;;;;;;;15.00;15.00;;;;;8.63;70.76;102347.03;5008433;28;45586;-78
2021/11/06 02:14:04;;;;;;;;;14.50;14.00;;;;;8.66;70.79;102343.44;5010805;28;47258;-77
2021/11/06 02:16:30;;;;;;;;;17.50;13.50;;;;;8.59;70.59;102341.94;5011133;28;45707;-78
2021/11/06 02:18:56;;;;;;;;;14.50;14.00;;;;;8.69;70.52;102351.19;5011093;28;45656;-77
2021/11/06 02:21:22;;;;;;;;;12.00;10.00;;;;;8.59;70.49;102329.75;5011054;28;46527;-78
2021/11/06 02:23:51;;;;;;;;;13.75;13.25;;;;;8.39;70.41;102290.41;5026183;28;47249;-77
2021/11/06 02:26:20;;;;;;;;;15.00;14.50;;;;;8.25;70.62;102285.66;4993869;28;45958;-78
2021/11/06 02:28:51;;;;;;;;;17.75;14.00;;;;;8.03;70.52;102250.75;5011274;27;45646;-78
2021/11/06 02:31:18;;;;;;;;;16.75;14.25;;;;;8.17;70.57;102273.75;5013566;27;45520;-78
2021/11/06 02:33:43;;;;;;;;;17.75;14.75;;;;;8.37;70.64;102313.97;5012406;27;47958;-78
2021/11/06 02:36:09;;;;;;;;;14.25;14.25;;;;;8.14;70.58;102274.72;5013244;27;45532;-78
2021/11/06 02:41:59;;;;;;;;;13.50;11.00;;;;;8.66;70.56;102341.69;5013477;28;45505;-76
2021/11/06 02:44:25;;;;;;;;;14.25;13.00;;;;;8.64;70.49;102327.81;5013557;28;46170;-78
2021/11/06 02:46:50;;;;;;;;;13.50;12.00;;;;;8.73;70.57;102337.09;5012135;28;45738;-78
2021/11/06 02:49:16;;;;;;;;;15.00;14.00;;;;;8.23;70.43;102263.97;5014133;28;45602;-79
2021/11/06 02:51:42;;;;;;;;;13.25;11.00;;;;;8.47;70.34;102279.72;5013694;28;46651;-77
2021/11/06 02:54:07;;;;;;;;;12.75;11.00;;;;;8.69;70.19;102330.28;5013537;28;46189;-78
2021/11/06 02:56:35;;;;;;;;;15.00;14.00;;;;;8.51;70.05;102286.53;5013122;28;45606;-77
2021/11/06 02:59:04;;;;;;;;;13.25;11.00;;;;;8.75;70.18;102338.75;5012727;28;45566;-78
2021/11/06 03:01:33;;;;;;;;;14.25;12.25;;;;;8.63;69.97;102320.91;5013015;28;47210;-77
2021/11/06 03:03:58;;;;;;;;;16.00;15.00;;;;;8.49;70.13;102304.84;5014420;27;45611;-78
2021/11/06 03:06:24;;;;;;;;;12.50;11.25;;;;;8.72;69.95;102336.25;5012984;27;45673;-79
2021/11/06 03:12:15;;;;;;;;;14.75;10.50;;;;;8.69;70.14;102341.56;5006735;28;45977;-78
2021/11/06 03:14:42;;;;;;;;;14.25;13.00;;;;;8.69;69.69;102346.78;5012563;28;46198;-78
2021/11/06 03:17:11;;;;;;;;;9.75;9.25;;;;;8.67;69.82;102339.94;5011822;27;45597;-76
2021/11/06 03:19:37;;;;;;;;;11.75;9.75;;;;;8.60;69.84;102331.44;5011830;28;45788;-78
2021/11/06 03:22:05;;;;;;;;;9.50;9.50;;;;;8.46;69.79;102311.94;5012848;28;46359;-77
2021/11/06 03:24:31;;;;;;;;;10.00;9.00;;;;;8.37;69.78;102302.66;5014969;28;47062;-78
2021/11/06 03:26:56;;;;;;;;;10.75;9.75;;;;;8.51;69.55;102330.94;5017312;28;45660;-78
2021/11/06 03:29:22;;;;;;;;;14.50;10.75;;;;;8.67;69.78;102347.78;5020619;28;45784;-78
2021/11/06 03:31:47;;;;;;;;;9.25;9.25;;;;;8.69;69.47;102346.78;5020396;28;46699;-78
2021/11/06 03:34:13;;;;;;;;;11.00;10.25;;;;;8.67;69.52;102346.00;5013339;28;45686;-78
2021/11/06 03:36:38;;;;;;;;;9.00;8.75;;;;;8.65;69.54;102337.38;5013091;28;45618;-77
2021/11/06 03:42:25;;;;;;;;;11.00;10.25;;;;;8.51;69.62;102310.03;5012671;28;45551;-77
2021/11/06 03:44:51;;;;;;;;;10.00;10.00;;;;;8.65;69.77;102333.91;5012891;28;45698;-78
2021/11/06 03:47:17;;;;;;;;;9.75;8.50;;;;;8.66;69.64;102336.47;5012812;28;45597;-77
2021/11/06 03:49:42;;;;;;;;;12.50;9.75;;;;;8.38;69.51;102289.56;5013186;28;45585;-77
2021/11/06 03:52:08;;;;;;;;;9.00;9.00;;;;;8.55;69.60;102316.84;5013025;28;45612;-78
2021/11/06 03:54:33;;;;;;;;;13.00;10.25;;;;;8.72;69.70;102343.22;5012627;28;45599;-77
2021/11/06 03:57:01;;;;;;;;;9.00;9.00;;;;;8.72;69.65;102338.88;5012841;28;45666;-78
2021/11/06 03:59:26;;;;;;;;;10.00;10.00;;;;;8.73;69.54;102343.19;5012624;28;45920;-76
2021/11/06 04:01:52;;;;;;;;;8.75;7.50;;;;;8.72;69.66;102354.53;5012819;28;45489;-78
2021/11/06 04:04:17;;;;;;;;;9.00;9.00;;;;;8.71;69.65;102351.97;5012766;28;45674;-76
2021/11/06 04:06:43;;;;;;;;;5.00;5.00;;;;;8.62;69.36;102340.09;5011074;28;45768;-78
2021/11/06 04:12:30;;;;;;;;;12.50;10.00;;;;;8.59;69.74;102353.25;5008767;28;46021;-77
2021/11/06 04:14:55;;;;;;;;;11.50;10.00;;;;;8.55;69.79;102349.03;5012172;28;45829;-77
2021/11/06 04:17:21;;;;;;;;;10.50;9.75;;;;;8.52;69.93;102343.09;5012069;28;46018;-77
2021/11/06 04:19:47;;;;;;;;;13.25;9.75;;;;;8.59;69.98;102349.78;5012703;28;45521;-78
2021/11/06 04:22:12;;;;;;;;;11.50;10.75;;;;;8.57;69.91;102355.09;5012338;28;45594;-78
2021/11/06 04:24:39;;;;;;;;;10.00;7.00;;;;;8.54;69.92;102354.31;5012239;28;46181;-77
2021/11/06 04:27:06;;;;;;;;;10.00;10.00;;;;;8.45;70.05;102346.81;5012493;28;45869;-77
2021/11/06 04:29:35;;;;;;;;;10.50;9.00;;;;;8.51;70.19;102365.75;5012270;28;45516;-77
2021/11/06 04:32:03;;;;;;;;;10.00;10.00;;;;;8.47;70.00;102364.16;5011943;28;46871;-78
2021/11/06 04:34:29;;;;;;;;;11.00;11.00;;;;;8.46;69.94;102364.19;5012086;28;46053;-78
2021/11/06 04:36:54;;;;;;;;;10.00;9.00;;;;;8.31;70.11;102353.34;5012031;28;45813;-78
2021/11/06 04:42:42;;;;;;;;;13.00;10.75;;;;;8.27;70.17;102356.94;5012204;28;45639;-79
2021/11/06 04:45:09;;;;;;;;;14.50;14.00;;;;;8.35;70.34;102375.00;5012038;28;47196;-78
2021/11/06 04:47:35;;;;;;;;;11.25;10.25;;;;;8.25;70.26;102358.75;5012019;28;45684;-78
2021/11/06 04:50:10;;;;;;;;;11.00;10.00;;;;;8.30;70.52;102376.91;5012649;28;45636;-78
2021/11/06 04:55:57;;;;;;;;;10.00;9.75;;;;;8.20;70.37;102370.25;5016960;28;45669;-78
2021/11/06 04:58:44;;;;;;;;;13.50;12.75;;;;;8.02;70.22;102348.22;5019462;28;45566;-78
2021/11/06 05:01:09;;;;;;;;;14.25;12.00;;;;;8.10;70.18;102384.50;5021062;27;45551;-77
2021/11/06 05:03:39;;;;;;;;;24.00;20.00;;;;;7.39;70.27;102262.44;5019510;27;48188;-79
2021/11/06 05:06:09;;;;;;;;;18.00;13.00;;;;;8.07;70.36;102379.38;5018117;28;45663;-79
2021/11/06 05:12:00;;;;;;;;;15.00;14.00;;;;;8.09;70.48;102375.84;5019023;28;45606;-77
2021/11/06 05:14:26;;;;;;;;;15.00;14.00;;;;;7.37;70.41;102256.41;5018925;28;47525;-77
2021/11/06 05:16:52;;;;;;;;;16.00;13.75;;;;;8.08;70.42;102363.69;5018284;28;45530;-78
2021/11/06 05:19:17;;;;;;;;;17.25;15.50;;;;;8.08;70.29;102371.50;5019070;28;45646;-76
2021/11/06 05:21:52;;;;;;;;;17.00;15.25;;;;;8.05;70.10;102379.41;5030219;28;45362;-78
2021/11/06 05:27:42;;;;;;;;;18.00;17.75;;;;;7.57;70.48;102320.06;5027302;28;45668;-77
2021/11/06 05:30:20;;;;;;;;;18.00;16.00;;;;;7.60;70.69;102324.34;5040873;28;45910;-79
2021/11/06 05:32:55;;;;;;;;;23.00;21.00;;;;;7.05;70.69;102240.00;5022736;27;45712;-78
2021/11/06 05:35:23;;;;;;;;;18.25;15.25;;;;;7.48;70.69;102309.06;5021642;27;48286;-78
2021/11/06 05:37:49;;;;;;;;;17.00;14.75;;;;;7.10;71.04;102253.75;5022066;28;46253;-78
2021/11/06 05:40:15;;;;;;;;;21.00;18.00;;;;;7.53;70.90;102322.81;5017830;27;45497;-78
2021/11/06 05:42:43;;;;;;;;;17.00;14.25;;;;;7.39;70.88;102293.72;5011215;28;45519;-77
2021/11/06 05:45:12;;;;;;;;;13.25;13.00;;;;;7.42;70.91;102307.50;5011809;28;47214;-77
2021/11/06 05:47:41;;;;;;;;;13.25;11.50;;;;;7.02;71.03;102234.88;5011888;28;46324;-77
2021/11/06 05:50:09;;;;;;;;;12.25;10.25;;;;;7.66;70.88;102337.19;5011969;28;45514;-77
2021/11/06 05:52:35;;;;;;;;;15.75;13.50;;;;;7.74;70.81;102353.44;5012427;28;45554;-77
2021/11/06 05:58:23;;;;;;;;;13.75;12.75;;;;;7.89;70.83;102367.75;5013662;28;45585;-77
2021/11/06 06:00:49;;;;;;;;;14.25;13.25;;;;;7.70;70.70;102335.34;5012007;28;45617;-77
2021/11/06 06:03:14;;;;;;;;;12.00;10.25;;;;;7.87;71.17;102361.75;5011739;28;45512;-78
2021/11/06 06:05:40;;;;;;;;;13.75;13.25;;;;;7.92;70.82;102373.75;5013807;28;46348;-77
2021/11/06 06:08:07;;;;;;;;;14.25;13.25;;;;;7.94;70.76;102373.69;5014022;28;45803;-77
2021/11/06 06:10:32;;;;;;;;;13.00;11.25;;;;;7.92;70.81;102384.19;5014141;28;45611;-76
2021/11/06 06:12:58;;;;;;;;;13.00;13.00;;;;;7.82;70.67;102367.13;5014139;28;45719;-77
2021/11/06 06:15:24;;;;;;;;;14.75;13.00;;;;;7.86;70.72;102386.13;5013769;27;47188;-78
2021/11/06 06:17:50;;;;;;;;;12.00;11.50;;;;;7.75;70.69;102370.81;5014083;28;46246;-77
2021/11/06 06:20:18;;;;;;;;;15.00;13.75;;;;;7.77;70.71;102376.00;5013553;28;45467;-76
2021/11/06 06:22:45;;;;;;;;;17.00;14.00;;;;;7.79;70.67;102390.69;5013789;27;45504;-78
2021/11/06 06:28:32;;;;;;;;;14.00;12.00;;;;;7.77;71.19;102402.09;5021163;28;46193;-78
2021/11/06 06:30:57;;;;;;;;;17.75;14.00;;;;;7.77;71.16;102394.25;5021267;28;45500;-78
2021/11/06 06:33:23;;;;;;;;;17.25;17.00;;;;;7.75;71.13;102390.81;5019329;28;45677;-76
2021/11/06 06:35:48;;;;;;;;;17.25;14.75;;;;;7.72;70.92;102401.38;5013718;28;46423;-78
2021/11/06 06:38:14;;;;;;;;;13.50;13.00;;;;;7.72;71.04;102407.41;5013961;28;45616;-78
2021/11/06 06:40:39;;;;;;;;;16.25;15.00;;;;;7.70;71.04;102410.97;5018513;27;45798;-76
2021/11/06 06:43:04;;;;;;;;;15.25;13.50;;;;;7.65;71.05;102402.44;5014789;28;45630;-78
2021/11/06 06:45:32;;;;;;;;;17.00;14.00;;;;;7.69;70.95;102410.13;5013292;28;47226;-78
2021/11/06 06:48:05;;;;;;;;;15.50;15.50;;;;;7.70;70.81;102406.63;5014199;28;46201;-78
2021/11/06 06:50:38;;;;;;;;;17.50;16.25;;;;;7.45;70.59;102371.75;5014024;27;45918;-79
2021/11/06 06:53:06;;;;;;;;;16.25;14.75;;;;;7.68;70.83;102415.38;5014239;28;45641;-80
2021/11/06 06:58:53;;;;;;;;;21.25;15.25;;;;;6.99;70.82;102286.22;5013250;28;46217;-79
2021/11/06 07:01:22;;;;;;;;;20.75;17.00;;;;;7.12;70.71;102318.88;5012155;28;45658;-78
2021/11/06 07:03:48;;;;;;;;;16.75;16.00;;;;;7.47;70.28;102381.22;5011937;28;45633;-76
2021/11/06 07:06:15;;;;;;;;;20.00;16.00;;;;;7.48;70.52;102366.44;5013200;28;45926;-78
2021/11/06 07:08:43;;;;;;;;;17.25;17.00;;;;;6.98;70.42;102282.75;5013287;28;46171;-78
2021/11/06 07:11:09;;;;;;;;;16.50;14.00;;;;;7.03;70.25;102287.84;5013049;28;45948;-78
2021/11/06 07:13:36;;;;;;;;;23.00;18.00;;;;;7.80;70.35;102420.25;5011490;28;45647;-77
2021/11/06 07:16:16;;;;;;;;;18.00;15.25;;;;;7.76;70.11;102405.59;5012619;28;46620;-76
2021/11/06 07:18:42;;;;;;;;;16.75;14.75;;;;;7.58;70.39;102384.38;5011506;27;47939;-74
2021/11/06 07:21:08;;;;;;;;;15.75;14.50;;;;;7.88;70.26;102419.09;5012720;28;45755;-74
2021/11/06 07:23:33;;;;;;;;;15.75;15.75;;;;;7.90;70.01;102417.31;5011077;28;45564;-75
2021/11/06 07:26:01;;;;;;;;;18.00;13.25;;;;;7.72;70.16;102380.50;5010887;27;48382;-76
2021/11/06 07:28:27;;;;;;;;;17.00;14.25;;;;;7.50;69.84;102330.75;5012878;28;46061;-75
2021/11/06 07:30:52;;;;;;;;;17.25;16.50;;;;;7.23;69.99;102282.91;5012526;28;45722;-76
2021/11/06 07:33:18;;;;;;;;;21.25;17.25;;;;;7.91;69.77;102389.44;5012525;28;45654;-77
2021/11/06 07:35:43;;;;;;;;;13.75;13.00;;;;;7.73;69.49;102350.88;5010691;28;47401;-75
2021/11/06 07:38:09;;;;;;;;;16.75;15.00;;;;;8.02;69.95;102389.97;5012537;28;45904;-76
2021/11/06 07:43:56;;;;;;;;;16.00;14.00;;;;;7.88;69.42;102350.41;5012352;28;45684;-74
2021/11/06 07:46:22;;;;;;;;;9.00;9.00;;;;;8.28;68.90;102417.84;5012592;28;46664;-76
2021/11/06 07:48:49;;;;;;;;;13.00;12.50;;;;;7.79;68.99;102341.13;5012526;28;45631;-72
2021/11/06 07:51:16;;;;;;;;;12.00;10.75;;;;;8.26;68.90;102410.03;5027386;28;45747;-75
2021/11/06 07:53:41;;;;;;;;;10.50;10.25;;;;;7.96;68.65;102361.44;5012553;28;45490;-74
2021/11/06 07:59:29;;;;;;;;;9.25;9.00;;;;;8.34;68.92;102415.06;5017938;28;45510;-75
2021/11/06 08:01:54;;;;;;;;;11.50;11.50;;;;;8.41;68.86;102425.28;5017898;28;45788;-79
2021/11/06 08:04:20;;;;;;;;;9.50;9.25;;;;;8.45;68.46;102427.78;5014954;28;45558;-76
2021/11/06 08:06:46;;;;;;;;;10.25;7.00;;;;;8.49;68.13;102432.84;5013676;28;45542;-76
2021/11/06 08:09:15;;;;;;;;;10.75;9.50;;;;;8.45;67.97;102417.31;5015847;28;46161;-75
2021/11/06 08:11:40;;;;;;;;;12.00;11.25;;;;;8.42;67.95;102411.28;5017108;27;45766;-74
2021/11/06 08:14:15;;;;;;;;;9.75;9.00;;;;;8.60;67.89;102429.88;5017141;28;45757;-81
2021/11/06 08:16:43;;;;;;;;;11.25;10.00;;;;;8.63;67.48;102424.56;5016946;27;46623;-77
2021/11/06 08:19:09;;;;;;;;;7.00;6.00;;;;;8.23;66.53;102378.84;5016801;28;46623;-74
2021/11/06 08:21:34;;;;;;;;;11.25;10.00;;;;;8.40;66.83;102413.13;5012522;28;46322;-75
2021/11/06 08:30:26;;;;;;;;;11.75;10.50;;;;;8.31;67.22;102376.84;5012872;28;46178;-77
2021/11/06 08:32:54;;;;;;;;;15.25;12.50;;;;;8.30;67.45;102369.06;5011947;28;45918;-76
2021/11/06 08:35:29;;;;;;;;;10.25;10.00;;;;;8.76;67.04;102449.34;5010709;28;45907;-75
2021/11/06 08:37:55;;;;;;;;;11.75;10.50;;;;;8.57;66.95;102388.19;5011561;28;46326;-74
2021/11/06 08:40:25;;;;;;;;;12.50;11.00;;;;;8.40;66.76;102352.19;5009981;28;48094;-76
2021/11/06 08:42:52;;;;;;;;;11.00;11.00;;;;;8.16;66.27;102301.59;5009862;28;45781;-75
2021/11/06 08:45:18;;;;;;;;;10.25;10.25;;;;;8.45;66.03;102355.50;5010963;28;45720;-75
2021/11/06 08:47:44;;;;;;;;;10.25;9.00;;;;;8.12;65.97;102286.09;5010965;27;46384;-76
2021/11/06 08:50:13;;;;;;;;;11.25;9.50;;;;;8.92;65.60;102415.69;5010854;27;45673;-74
2021/11/06 08:52:39;;;;;;;;;7.75;7.75;;;;;8.73;65.44;102381.53;5011240;28;45522;-77
2021/11/06 08:55:06;;;;;;;;;10.25;9.25;;;;;8.83;65.14;102403.81;5011402;28;45736;-74
2021/11/06 08:57:36;;;;;;;;;9.00;8.25;;;;;8.91;64.95;102419.25;5011029;28;47706;-78
2021/11/06 09:00:09;;;;;;;;;11.75;10.75;;;;;8.96;65.42;102412.91;5011447;28;46084;-76
2021/11/06 09:02:35;;;;;;;;;12.50;11.00;;;;;8.93;65.18;102412.19;5009931;28;45826;-79
2021/11/06 09:05:03;;;;;;;;;12.00;10.00;;;;;8.94;65.14;102413.91;5010326;28;45769;-76
2021/11/06 09:07:32;;;;;;;;;10.50;10.50;;;;;8.96;64.73;102415.53;5011074;27;47035;-80
2021/11/06 09:09:59;;;;;;;;;8.50;8.25;;;;;8.92;64.47;102410.47;5011681;28;46217;-76
2021/11/06 09:12:25;;;;;;;;;9.00;9.00;;;;;9.09;64.90;102424.66;5011973;28;45595;-79
2021/11/06 09:14:52;;;;;;;;;10.50;9.25;;;;;9.17;65.03;102424.41;5011870;28;45832;-78
2021/11/06 09:17:17;;;;;;;;;12.00;11.25;;;;;9.21;64.37;102425.97;5011829;28;46260;-76
2021/11/06 09:19:42;;;;;;;;;11.25;11.00;;;;;9.13;64.54;102400.09;5011412;28;47046;-77
2021/11/06 09:22:08;;;;;;;;;11.75;11.00;;;;;9.34;64.13;102426.41;5011433;28;45688;-75
2021/11/06 09:24:33;;;;;;;;;13.00;11.75;;;;;9.38;64.05;102423.59;5011467;28;45668;-77
2021/11/06 09:30:20;;;;;;;;;8.50;8.50;;;;;9.52;63.78;102431.78;5014825;28;45771;-78
2021/11/06 09:32:46;;;;;;;;;10.25;8.00;;;;;9.47;63.34;102418.03;5016791;28;45642;-78
2021/11/06 09:35:12;;;;;;;;;9.00;7.75;;;;;9.56;62.54;102432.50;5013542;28;45870;-79
2021/11/06 09:37:38;;;;;;;;;8.00;7.25;;;;;9.41;62.73;102402.56;5011215;28;45583;-78
2021/11/06 09:40:07;;;;;;;;;10.75;9.75;;;;;9.56;62.64;102419.44;5014196;28;46055;-78
2021/11/06 09:42:35;;;;;;;;;10.00;7.00;;;;;9.60;62.67;102424.50;5014122;28;45846;-76
2021/11/06 09:45:01;;;;;;;;;10.00;8.00;;;;;9.58;62.46;102409.78;5013887;27;45514;-77
2021/11/06 09:47:26;;;;;;;;;10.00;8.00;;;;;9.64;62.59;102409.53;5014111;28;46500;-79
2021/11/06 09:49:53;;;;;;;;;8.50;7.00;;;;;9.76;62.54;102416.94;5014273;28;45969;-78
2021/11/06 09:52:19;;;;;;;;;8.00;7.25;;;;;9.84;62.52;102421.84;5013845;28;45665;-77
2021/11/06 09:54:45;;;;;;;;;14.00;12.25;;;;;9.86;62.71;102412.19;5013718;28;45861;-78
2021/11/06 10:00:32;;;;;;;;;10.00;9.00;;;;;10.01;62.13;102424.66;5013740;28;46100;-76
2021/11/06 10:02:58;;;;;;;;;8.00;7.00;;;;;10.03;62.04;102420.22;5013530;28;45568;-77
2021/11/06 10:05:58;;;;;;;;;12.75;11.00;;;;;10.08;61.68;102413.91;5013814;28;45830;-80
2021/11/06 10:08:34;;;;;;;;;8.00;8.00;;;;;10.09;61.49;102415.56;5013518;28;47611;-78
2021/11/06 10:11:03;;;;;;;;;11.00;8.50;;;;;10.13;61.18;102423.34;5013973;28;46219;-75
2021/11/06 10:13:29;;;;;;;;;10.00;8.00;;;;;10.14;61.29;102414.56;5013737;27;45620;-77
2021/11/06 10:15:58;;;;;;;;;11.50;10.50;;;;;10.22;61.52;102423.84;5012472;28;45951;-78
2021/11/06 10:18:26;;;;;;;;;9.75;9.75;;;;;10.30;61.72;102426.16;5013467;28;46434;-78
2021/11/06 10:21:23;;;;;;;;;8.50;8.50;;;;;10.37;61.45;102417.97;5013554;28;46867;-76
2021/11/06 10:23:49;;;;;;;;;8.00;8.00;;;;;10.41;61.38;102410.84;5013802;27;45807;-78
2021/11/06 10:26:20;;;;;;;;;12.00;11.25;;;;;10.45;60.89;102413.28;5013616;28;45515;-80
2021/11/06 10:28:53;;;;;;;;;8.50;7.00;;;;;10.51;61.16;102404.31;5013625;28;46437;-79
2021/11/06 10:31:19;;;;;;;;;12.00;9.75;;;;;10.55;60.77;102405.03;5013421;28;45751;-80
2021/11/06 10:33:48;;;;;;;;;10.25;7.25;;;;;10.61;61.04;102404.75;5013380;28;45466;-79
2021/11/06 10:36:25;;;;;;;;;8.75;8.75;;;;;10.66;60.40;102400.19;5013678;28;45656;-77
2021/11/06 10:39:11;;;;;;;;;9.00;9.00;;;;;10.67;60.14;102404.50;5013415;28;45500;-79
2021/11/06 10:41:41;;;;;;;;;13.50;12.00;;;;;10.63;60.19;102403.81;5013191;28;46231;-76
2021/11/06 10:44:07;;;;;;;;;8.75;8.00;;;;;10.65;59.77;102399.31;5013187;28;45916;-76
2021/11/06 10:46:34;;;;;;;;;8.00;8.00;;;;;10.65;59.84;102401.94;5013610;28;45598;-79
2021/11/06 10:49:00;;;;;;;;;9.50;8.00;;;;;10.67;59.80;102401.88;5013090;28;46584;-75
2021/11/06 10:51:26;;;;;;;;;8.25;7.00;;;;;10.73;60.11;102391.16;5012231;28;47115;-78
2021/11/06 10:53:58;;;;;;;;;11.50;8.75;;;;;10.78;59.78;102383.94;5012921;28;45631;-78
2021/11/06 10:56:30;;;;;;;;;8.75;7.75;;;;;10.80;59.41;102390.78;5013254;28;45528;-80
2021/11/06 10:58:58;;;;;;;;;7.50;6.25;;;;;10.76;58.67;102380.50;5013392;27;45472;-79
2021/11/06 11:01:31;;;;;;;;;8.00;8.00;;;;;10.79;58.55;102386.50;5013200;27;46053;-79
2021/11/06 11:04:07;;;;;;;;;7.50;7.00;;;;;10.80;58.65;102382.94;5015751;28;45506;-75
2021/11/06 11:06:40;;;;;;;;;11.00;8.75;;;;;10.86;59.09;102393.16;5017464;28;45832;-74
2021/11/06 11:09:18;;;;;;;;;9.00;8.00;;;;;10.90;59.15;102378.97;5017279;28;45458;-77
2021/11/06 11:11:44;;;;;;;;;12.50;11.25;;;;;10.96;59.07;102375.25;5017345;28;46232;-76
2021/11/06 11:14:13;;;;;;;;;9.00;8.50;;;;;11.04;58.80;102380.16;5013437;28;45614;-74
2021/11/06 11:16:52;;;;;;;;;8.50;8.00;;;;;11.02;58.46;102372.34;5013209;28;45614;-74
2021/11/06 11:19:19;;;;;;;;;9.00;7.00;;;;;11.14;58.79;102369.19;5011405;28;48878;-76
2021/11/06 11:21:46;;;;;;;;;10.75;7.00;;;;;11.20;57.90;102373.31;5012602;28;46317;-76
2021/11/06 11:24:18;;;;;;;;;9.75;8.25;;;;;11.21;58.41;102370.63;5012403;28;45694;-73
2021/11/06 11:26:48;;;;;;;;;6.00;6.00;;;;;11.24;58.11;102372.22;5012597;28;45617;-77
2021/11/06 11:29:20;;;;;;;;;6.25;5.00;;;;;11.23;57.83;102371.38;5012090;28;46407;-80
2021/11/06 11:31:47;;;;;;;;;7.00;7.00;;;;;11.24;57.78;102367.84;5012518;28;46127;-75
2021/11/06 11:34:13;;;;;;;;;8.00;6.00;;;;;11.25;57.88;102359.06;5012490;28;45650;-75
2021/11/06 11:36:40;;;;;;;;;4.00;4.00;;;;;11.31;57.42;102365.78;5012519;28;45818;-76
2021/11/06 11:39:09;;;;;;;;;7.50;6.00;;;;;11.34;57.71;102363.00;5012111;28;46417;-75
2021/11/06 11:41:46;;;;;;;;;8.25;8.00;;;;;11.38;57.94;102354.09;5012645;28;45501;-75
2021/11/06 11:44:49;;;;;;;;;6.50;6.50;;;;;11.47;57.97;102350.19;5012487;28;45733;-77
2021/11/06 11:47:42;;;;;;;;;9.75;8.00;;;;;11.53;57.75;102345.50;5012490;28;45512;-76
2021/11/06 11:50:16;;;;;;;;;6.75;6.00;;;;;11.59;57.53;102336.50;5032561;28;47492;-74
2021/11/06 11:52:48;;;;;;;;;8.00;7.50;;;;;11.63;57.17;102325.78;5033154;28;46228;-79
2021/11/06 11:55:20;;;;;;;;;8.00;7.00;;;;;11.73;57.62;102326.19;5032957;28;46103;-78
2021/11/06 11:58:05;;;;;;;;;7.00;5.50;;;;;11.77;57.30;102325.97;5032875;28;45641;-75
2021/11/06 12:00:30;;;;;;;;;7.00;6.50;;;;;11.80;56.62;102321.50;5032571;28;47485;-75
2021/11/06 12:03:00;;;;;;;;;5.25;5.25;;;;;11.78;56.86;102311.06;5032581;28;45716;-77
2021/11/06 12:05:26;;;;;;;;;5.25;4.00;;;;;11.83;56.70;102313.47;5032636;28;45738;-76
2021/11/06 12:08:12;;;;;;;;;8.00;8.00;;;;;11.88;56.02;102317.56;5032632;28;45563;-74
2021/11/06 12:10:40;;;;;;;;;6.00;5.50;;;;;11.89;56.18;102307.91;5028619;28;46467;-76
2021/11/06 12:13:25;;;;;;;;;7.00;4.75;;;;;11.93;56.17;102305.06;5030189;28;46153;-78
2021/11/06 12:16:10;;;;;;;;;8.75;8.75;;;;;11.89;55.88;102297.41;5033133;28;45774;-79
2021/11/06 12:18:51;;;;;;;;;7.25;7.25;;;;;11.74;55.66;102268.38;5032951;28;45759;-74
2021/11/06 12:21:38;;;;;;;;;7.50;6.00;;;;;11.92;55.93;102299.91;5032831;28;47370;-80
2021/11/06 12:24:09;;;;;;;;;8.00;6.75;;;;;11.93;55.71;102297.19;5012453;28;46208;-74
2021/11/06 12:29:56;;;;;;;;;9.25;7.75;;;;;11.92;55.48;102292.88;5032572;28;45638;-78
2021/11/06 12:32:28;;;;;;;;;9.00;7.50;;;;;11.74;55.44;102251.75;5032528;28;46276;-74
2021/11/06 12:35:24;;;;;;;;;7.75;7.00;;;;;11.93;55.68;102293.72;5032068;28;46169;-75
2021/11/06 12:37:52;;;;;;;;;8.25;8.25;;;;;11.97;55.87;102288.25;5032072;28;45737;-80
2021/11/06 12:40:21;;;;;;;;;6.50;5.25;;;;;12.02;55.61;102282.75;5032261;28;45923;-75
2021/11/06 12:46:22;;;;;;;;;7.00;6.00;;;;;12.15;55.32;102268.06;5037210;28;45674;-77
2021/11/06 12:48:47;;;;;;;;;9.00;8.00;;;;;12.18;54.76;102268.78;5036902;28;45764;-80
2021/11/06 12:51:19;;;;;;;;;7.75;7.75;;;;;12.18;55.11;102276.66;5035053;28;45829;-81